Vance Air Force Base
KEND : now visible

Airfield :











YOU CAN JOIN US ON...

 
LOGIN :

Register | Disclaimer

   EN    FR    IT 

 









Legend :    VFR   Marginal VFR   IFR   Intensive IFR   Very Intensive IFR
Visi :
Ceiling :
>= 8 km
>= 3000ft
5 to 8 km
1000 to 3000 ft
1500m to 5 km
500 to 1000 ft
800 to 1500m
200 to 500 ft
< 800m
< 200 ft
Symbols :   Thunderstorms  Fog  Heavy snow  Heavy precipitations  Wind > 20 kt






- Airport Elevation : 1307 ft


KEND - Vance Air Force Base

CURRENT METAR :
  • 180556Z AUTO 18011KT 10SM CLR 25/19 A2994 RMK AO2 SLP123 T02530192 10356 20253 403800217 51004 CHINO RWY35C $

EXPIRED METARs :
  • 180456Z AUTO 17011KT 10SM CLR 26/19 A2994 RMK AO2 SLP123 T02580187 CHINO RWY35C $
  • 180356Z AUTO 17012KT 10SM CLR 28/19 A2994 RMK AO2 SLP123 T02780185 CHINO RWY35C $

TAF AMD TAF KEND
Valid from the 18 at 04:00 until the 19 at 08:00 UTC


180431Z 1804/1908 17009KT 9999 SKC QNH2988INS
BECMG 1814/1815 21010G15KT 9999 SKC QNH2986INS
BECMG 1819/1820 18012KT 9999 SKC QNH2978INS TX38/1821Z TN23/1812Z LAST NO AMDS AFT 1804 NEXT 2102
KZKC FIR / North America



MET'MAP, your aeronautical weather chart ! - Copyright ORBIFLY December 2007 - Disclaimer

ORBIFLY MET'MAP TEAM :

Programming & Development : Alexandra Zaïnal
Concept & original design : Baudouin d'Aumeries
Assistance for programming : Marc-Olivier Méhu
Technical & hardware support : Manuel Goepfert

Contact : metmap@orbifly.com




SOURCES & CREDITS :

   NOAA       Earth
Advisory